sensor_id;sensor_type;location;lat;lon;timestamp;temperature;humidity
43338;DHT22;28933;52.492;13.434;2022-10-04T00:04:46;15.10;99.90
43338;DHT22;28933;52.492;13.434;2022-10-04T00:07:21;15.10;99.90
43338;DHT22;28933;52.492;13.434;2022-10-04T00:09:54;15.10;99.90
43338;DHT22;28933;52.492;13.434;2022-10-04T00:12:27;15.10;99.90
43338;DHT22;28933;52.492;13.434;2022-10-04T00:14:59;15.10;99.90
43338;DHT22;28933;52.492;13.434;2022-10-04T00:17:28;15.10;99.90
43338;DHT22;28933;52.492;13.434;2022-10-04T00:19:57;15.10;99.90
43338;DHT22;28933;52.492;13.434;2022-10-04T00:22:25;15.10;99.90
43338;DHT22;28933;52.492;13.434;2022-10-04T00:27:32;15.10;99.90
43338;DHT22;28933;52.492;13.434;2022-10-04T00:32:46;15.00;99.90
43338;DHT22;28933;52.492;13.434;2022-10-04T00:40:38;15.10;99.90
43338;DHT22;28933;52.492;13.434;2022-10-04T00:43:36;15.00;99.90
43338;DHT22;28933;52.492;13.434;2022-10-04T00:46:21;15.00;99.90
43338;DHT22;28933;52.492;13.434;2022-10-04T00:48:59;15.00;99.90
43338;DHT22;28933;52.492;13.434;2022-10-04T00:54:23;15.00;99.90
43338;DHT22;28933;52.492;13.434;2022-10-04T00:59:33;14.90;99.90
43338;DHT22;28933;52.492;13.434;2022-10-04T01:04:42;14.90;99.90
43338;DHT22;28933;52.492;13.434;2022-10-04T01:07:13;14.90;99.90
43338;DHT22;28933;52.492;13.434;2022-10-04T01:09:49;14.90;99.90
43338;DHT22;28933;52.492;13.434;2022-10-04T01:12:35;15.00;99.90
43338;DHT22;28933;52.492;13.434;2022-10-04T01:17:35;15.00;99.90
43338;DHT22;28933;52.492;13.434;2022-10-04T01:20:00;14.90;99.90
43338;DHT22;28933;52.492;13.434;2022-10-04T01:22:33;14.90;99.90
43338;DHT22;28933;52.492;13.434;2022-10-04T01:25:00;14.90;99.90
43338;DHT22;28933;52.492;13.434;2022-10-04T01:27:35;14.90;99.90
43338;DHT22;28933;52.492;13.434;2022-10-04T01:30:03;15.00;99.90
43338;DHT22;28933;52.492;13.434;2022-10-04T01:32:30;14.90;99.90
43338;DHT22;28933;52.492;13.434;2022-10-04T01:34:56;14.90;99.90
43338;DHT22;28933;52.492;13.434;2022-10-04T01:37:22;14.90;99.90
43338;DHT22;28933;52.492;13.434;2022-10-04T01:39:48;14.90;99.90
43338;DHT22;28933;52.492;13.434;2022-10-04T01:42:48;14.80;99.90
43338;DHT22;28933;52.492;13.434;2022-10-04T01:48:06;14.70;99.90
43338;DHT22;28933;52.492;13.434;2022-10-04T01:50:55;14.70;99.90
43338;DHT22;28933;52.492;13.434;2022-10-04T01:53:38;14.70;99.90
43338;DHT22;28933;52.492;13.434;2022-10-04T01:56:15;14.70;99.90
43338;DHT22;28933;52.492;13.434;2022-10-04T01:58:46;14.70;99.90
43338;DHT22;28933;52.492;13.434;2022-10-04T02:01:24;14.60;99.90
43338;DHT22;28933;52.492;13.434;2022-10-04T02:04:03;14.60;99.90
43338;DHT22;28933;52.492;13.434;2022-10-04T02:06:38;14.60;99.90
43338;DHT22;28933;52.492;13.434;2022-10-04T02:09:13;14.60;99.90
43338;DHT22;28933;52.492;13.434;2022-10-04T02:11:40;14.60;99.90
43338;DHT22;28933;52.492;13.434;2022-10-04T02:14:14;14.60;99.90
43338;DHT22;28933;52.492;13.434;2022-10-04T02:16:42;14.50;99.90
43338;DHT22;28933;52.492;13.434;2022-10-04T02:19:10;14.60;99.90
43338;DHT22;28933;52.492;13.434;2022-10-04T02:21:37;14.50;99.90
43338;DHT22;28933;52.492;13.434;2022-10-04T02:24:04;14.50;99.90
43338;DHT22;28933;52.492;13.434;2022-10-04T02:26:31;14.50;99.90
43338;DHT22;28933;52.492;13.434;2022-10-04T02:28:57;14.50;99.90
43338;DHT22;28933;52.492;13.434;2022-10-04T02:31:24;14.50;99.90
43338;DHT22;28933;52.492;13.434;2022-10-04T02:34:09;14.50;99.90
43338;DHT22;28933;52.492;13.434;2022-10-04T02:36:35;14.50;99.90
43338;DHT22;28933;52.492;13.434;2022-10-04T02:39:11;14.50;99.90
43338;DHT22;28933;52.492;13.434;2022-10-04T02:41:51;14.40;99.90
43338;DHT22;28933;52.492;13.434;2022-10-04T02:47:02;14.40;99.90
43338;DHT22;28933;52.492;13.434;2022-10-04T02:49:35;14.40;99.90
43338;DHT22;28933;52.492;13.434;2022-10-04T02:52:38;14.30;99.90
43338;DHT22;28933;52.492;13.434;2022-10-04T02:55:28;14.30;99.90
43338;DHT22;28933;52.492;13.434;2022-10-04T02:57:55;14.30;99.90
43338;DHT22;28933;52.492;13.434;2022-10-04T03:00:24;14.30;99.90
43338;DHT22;28933;52.492;13.434;2022-10-04T03:05:37;14.20;99.90
43338;DHT22;28933;52.492;13.434;2022-10-04T03:08:03;14.20;99.90
43338;DHT22;28933;52.492;13.434;2022-10-04T03:10:30;14.20;99.90
43338;DHT22;28933;52.492;13.434;2022-10-04T03:12:56;14.20;99.90
43338;DHT22;28933;52.492;13.434;2022-10-04T03:15:21;14.20;99.90
43338;DHT22;28933;52.492;13.434;2022-10-04T03:17:48;14.20;99.90
43338;DHT22;28933;52.492;13.434;2022-10-04T03:20:16;14.10;99.90
43338;DHT22;28933;52.492;13.434;2022-10-04T03:22:49;14.10;99.90
43338;DHT22;28933;52.492;13.434;2022-10-04T03:25:22;14.10;99.90
43338;DHT22;28933;52.492;13.434;2022-10-04T03:27:50;14.10;99.90
43338;DHT22;28933;52.492;13.434;2022-10-04T03:30:16;14.00;99.90
43338;DHT22;28933;52.492;13.434;2022-10-04T03:32:46;14.00;99.90
43338;DHT22;28933;52.492;13.434;2022-10-04T03:35:26;14.00;99.90
43338;DHT22;28933;52.492;13.434;2022-10-04T03:37:54;14.00;99.90
43338;DHT22;28933;52.492;13.434;2022-10-04T03:40:24;14.00;99.90
43338;DHT22;28933;52.492;13.434;2022-10-04T03:42:52;14.00;99.90
43338;DHT22;28933;52.492;13.434;2022-10-04T03:45:18;14.00;99.90
43338;DHT22;28933;52.492;13.434;2022-10-04T03:47:47;14.00;99.90
43338;DHT22;28933;52.492;13.434;2022-10-04T03:50:23;14.00;99.90
43338;DHT22;28933;52.492;13.434;2022-10-04T03:52:53;13.90;99.90
43338;DHT22;28933;52.492;13.434;2022-10-04T03:55:21;13.90;99.90
43338;DHT22;28933;52.492;13.434;2022-10-04T03:57:48;13.90;99.90
43338;DHT22;28933;52.492;13.434;2022-10-04T04:00:16;13.80;99.90
43338;DHT22;28933;52.492;13.434;2022-10-04T04:03:02;13.90;99.90
43338;DHT22;28933;52.492;13.434;2022-10-04T04:05:34;13.80;99.90
43338;DHT22;28933;52.492;13.434;2022-10-04T04:08:24;13.80;99.90
43338;DHT22;28933;52.492;13.434;2022-10-04T04:10:54;13.80;99.90
43338;DHT22;28933;52.492;13.434;2022-10-04T04:16:08;13.80;99.90
43338;DHT22;28933;52.492;13.434;2022-10-04T04:18:37;13.80;99.90
43338;DHT22;28933;52.492;13.434;2022-10-04T04:21:05;13.90;99.90
43338;DHT22;28933;52.492;13.434;2022-10-04T04:23:46;13.90;99.90
43338;DHT22;28933;52.492;13.434;2022-10-04T04:26:22;13.90;99.90
43338;DHT22;28933;52.492;13.434;2022-10-04T04:28:50;14.00;99.90
43338;DHT22;28933;52.492;13.434;2022-10-04T04:31:29;13.90;99.90
43338;DHT22;28933;52.492;13.434;2022-10-04T04:33:58;13.90;99.90
43338;DHT22;28933;52.492;13.434;2022-10-04T04:36:27;13.90;99.90
43338;DHT22;28933;52.492;13.434;2022-10-04T04:39:04;13.90;99.90
43338;DHT22;28933;52.492;13.434;2022-10-04T04:41:49;13.80;99.90
43338;DHT22;28933;52.492;13.434;2022-10-04T04:44:16;13.80;99.90
43338;DHT22;28933;52.492;13.434;2022-10-04T04:46:44;13.80;99.90
43338;DHT22;28933;52.492;13.434;2022-10-04T04:49:12;13.80;99.90
43338;DHT22;28933;52.492;13.434;2022-10-04T04:51:40;13.80;99.90
43338;DHT22;28933;52.492;13.434;2022-10-04T04:54:11;13.80;99.90
43338;DHT22;28933;52.492;13.434;2022-10-04T04:56:37;13.70;99.90
43338;DHT22;28933;52.492;13.434;2022-10-04T04:59:05;13.70;99.90
43338;DHT22;28933;52.492;13.434;2022-10-04T05:01:43;13.70;99.90
43338;DHT22;28933;52.492;13.434;2022-10-04T05:06:44;13.60;99.90
43338;DHT22;28933;52.492;13.434;2022-10-04T05:09:28;13.60;99.90
43338;DHT22;28933;52.492;13.434;2022-10-04T05:12:09;13.60;99.90
43338;DHT22;28933;52.492;13.434;2022-10-04T05:14:40;13.50;99.90
43338;DHT22;28933;52.492;13.434;2022-10-04T05:19:45;13.60;99.90
43338;DHT22;28933;52.492;13.434;2022-10-04T05:22:12;13.60;99.90
43338;DHT22;28933;52.492;13.434;2022-10-04T05:24:42;13.50;99.90
43338;DHT22;28933;52.492;13.434;2022-10-04T05:27:39;13.50;99.90
43338;DHT22;28933;52.492;13.434;2022-10-04T05:36:01;13.50;99.90
43338;DHT22;28933;52.492;13.434;2022-10-04T05:38:52;13.50;99.90
43338;DHT22;28933;52.492;13.434;2022-10-04T05:41:38;13.50;99.90
43338;DHT22;28933;52.492;13.434;2022-10-04T05:44:45;13.50;99.90
43338;DHT22;28933;52.492;13.434;2022-10-04T05:47:13;13.60;99.90
43338;DHT22;28933;52.492;13.434;2022-10-04T05:49:44;13.60;99.90
43338;DHT22;28933;52.492;13.434;2022-10-04T05:52:48;13.70;99.90
43338;DHT22;28933;52.492;13.434;2022-10-04T05:55:26;13.70;99.90
43338;DHT22;28933;52.492;13.434;2022-10-04T05:58:04;13.80;99.90
43338;DHT22;28933;52.492;13.434;2022-10-04T06:00:58;13.90;99.90
43338;DHT22;28933;52.492;13.434;2022-10-04T06:06:42;14.00;99.90
43338;DHT22;28933;52.492;13.434;2022-10-04T06:09:46;14.10;99.90
43338;DHT22;28933;52.492;13.434;2022-10-04T06:12:23;14.20;99.90
43338;DHT22;28933;52.492;13.434;2022-10-04T06:15:36;14.30;99.90
43338;DHT22;28933;52.492;13.434;2022-10-04T06:21:17;14.40;99.90
43338;DHT22;28933;52.492;13.434;2022-10-04T06:24:11;14.40;99.90
43338;DHT22;28933;52.492;13.434;2022-10-04T06:26:43;14.50;99.90
43338;DHT22;28933;52.492;13.434;2022-10-04T06:29:13;14.60;99.90
43338;DHT22;28933;52.492;13.434;2022-10-04T06:31:59;14.60;99.90
43338;DHT22;28933;52.492;13.434;2022-10-04T06:40:07;14.70;99.90
43338;DHT22;28933;52.492;13.434;2022-10-04T06:43:22;14.80;99.90
43338;DHT22;28933;52.492;13.434;2022-10-04T06:49:03;14.90;99.90
43338;DHT22;28933;52.492;13.434;2022-10-04T07:00:24;15.10;99.90
43338;DHT22;28933;52.492;13.434;2022-10-04T07:05:27;15.10;99.90
43338;DHT22;28933;52.492;13.434;2022-10-04T07:16:31;15.30;99.90
43338;DHT22;28933;52.492;13.434;2022-10-04T07:27:15;15.40;99.90
43338;DHT22;28933;52.492;13.434;2022-10-04T07:29:42;15.40;99.90
43338;DHT22;28933;52.492;13.434;2022-10-04T07:32:20;15.50;99.90
43338;DHT22;28933;52.492;13.434;2022-10-04T07:34:58;15.50;99.90
43338;DHT22;28933;52.492;13.434;2022-10-04T07:37:28;15.50;99.90
43338;DHT22;28933;52.492;13.434;2022-10-04T07:45:22;15.70;99.90
43338;DHT22;28933;52.492;13.434;2022-10-04T07:47:49;15.70;99.90
43338;DHT22;28933;52.492;13.434;2022-10-04T07:50:28;15.70;99.90
43338;DHT22;28933;52.492;13.434;2022-10-04T07:53:04;15.70;99.90
43338;DHT22;28933;52.492;13.434;2022-10-04T07:59:19;15.80;99.90
43338;DHT22;28933;52.492;13.434;2022-10-04T08:01:32;15.80;99.90
43338;DHT22;28933;52.492;13.434;2022-10-04T08:04:22;15.80;99.90
43338;DHT22;28933;52.492;13.434;2022-10-04T08:06:54;15.80;99.90
43338;DHT22;28933;52.492;13.434;2022-10-04T08:15:06;15.90;99.90
43338;DHT22;28933;52.492;13.434;2022-10-04T08:17:49;16.00;99.80
43338;DHT22;28933;52.492;13.434;2022-10-04T08:20:55;15.90;99.80
43338;DHT22;28933;52.492;13.434;2022-10-04T08:34:43;16.20;99.80
43338;DHT22;28933;52.492;13.434;2022-10-04T08:45:23;16.50;99.40
43338;DHT22;28933;52.492;13.434;2022-10-04T08:48:39;16.60;99.10
43338;DHT22;28933;52.492;13.434;2022-10-04T08:57:04;16.70;99.00
43338;DHT22;28933;52.492;13.434;2022-10-04T09:00:08;16.70;98.90
43338;DHT22;28933;52.492;13.434;2022-10-04T09:03:12;16.80;98.80
43338;DHT22;28933;52.492;13.434;2022-10-04T09:12:08;16.90;98.50
43338;DHT22;28933;52.492;13.434;2022-10-04T09:20:27;17.10;98.40
43338;DHT22;28933;52.492;13.434;2022-10-04T09:29:49;17.30;97.80
43338;DHT22;28933;52.492;13.434;2022-10-04T09:49:16;17.40;97.30
43338;DHT22;28933;52.492;13.434;2022-10-04T09:52:08;17.50;97.20
43338;DHT22;28933;52.492;13.434;2022-10-04T10:00:10;17.80;97.10
43338;DHT22;28933;52.492;13.434;2022-10-04T10:05:37;17.90;96.60
43338;DHT22;28933;52.492;13.434;2022-10-04T10:08:23;17.80;96.30
43338;DHT22;28933;52.492;13.434;2022-10-04T10:14:06;17.70;96.10
43338;DHT22;28933;52.492;13.434;2022-10-04T10:22:34;17.80;96.20
43338;DHT22;28933;52.492;13.434;2022-10-04T10:25:35;17.90;96.40
43338;DHT22;28933;52.492;13.434;2022-10-04T10:31:33;18.10;95.90
43338;DHT22;28933;52.492;13.434;2022-10-04T10:43:14;18.40;96.30
43338;DHT22;28933;52.492;13.434;2022-10-04T10:52:03;18.50;95.70
43338;DHT22;28933;52.492;13.434;2022-10-04T11:27:46;19.10;95.20
43338;DHT22;28933;52.492;13.434;2022-10-04T11:30:17;19.10;95.00
43338;DHT22;28933;52.492;13.434;2022-10-04T11:35:43;19.10;95.20
43338;DHT22;28933;52.492;13.434;2022-10-04T11:41:46;19.20;95.10
43338;DHT22;28933;52.492;13.434;2022-10-04T11:50:24;19.30;94.80
43338;DHT22;28933;52.492;13.434;2022-10-04T12:06:41;19.20;94.30
43338;DHT22;28933;52.492;13.434;2022-10-04T12:09:38;19.20;94.20
43338;DHT22;28933;52.492;13.434;2022-10-04T12:29:03;19.10;94.50
43338;DHT22;28933;52.492;13.434;2022-10-04T12:31:41;19.10;94.30
43338;DHT22;28933;52.492;13.434;2022-10-04T12:37:17;19.30;94.60
43338;DHT22;28933;52.492;13.434;2022-10-04T12:40:13;19.30;94.10
43338;DHT22;28933;52.492;13.434;2022-10-04T12:45:47;19.30;93.80
43338;DHT22;28933;52.492;13.434;2022-10-04T12:48:25;19.40;93.60
43338;DHT22;28933;52.492;13.434;2022-10-04T12:51:17;19.30;93.50
43338;DHT22;28933;52.492;13.434;2022-10-04T12:53:50;19.30;93.30
43338;DHT22;28933;52.492;13.434;2022-10-04T13:07:29;19.30;93.60
43338;DHT22;28933;52.492;13.434;2022-10-04T13:10:20;19.30;93.40
43338;DHT22;28933;52.492;13.434;2022-10-04T13:22:18;19.50;93.40
43338;DHT22;28933;52.492;13.434;2022-10-04T13:30:22;19.70;93.10
43338;DHT22;28933;52.492;13.434;2022-10-04T13:33:02;19.70;93.00
43338;DHT22;28933;52.492;13.434;2022-10-04T13:44:11;19.70;93.10
43338;DHT22;28933;52.492;13.434;2022-10-04T13:49:50;19.80;92.90
43338;DHT22;28933;52.492;13.434;2022-10-04T13:52:49;19.90;92.40
43338;DHT22;28933;52.492;13.434;2022-10-04T14:09:51;20.00;92.30
43338;DHT22;28933;52.492;13.434;2022-10-04T14:15:46;20.00;92.40
43338;DHT22;28933;52.492;13.434;2022-10-04T14:18:42;20.10;92.40
43338;DHT22;28933;52.492;13.434;2022-10-04T14:29:57;20.40;92.10
43338;DHT22;28933;52.492;13.434;2022-10-04T14:32:45;20.40;92.00
43338;DHT22;28933;52.492;13.434;2022-10-04T14:40:55;20.30;91.70
43338;DHT22;28933;52.492;13.434;2022-10-04T14:43:44;20.30;91.60
43338;DHT22;28933;52.492;13.434;2022-10-04T14:46:27;20.30;91.50
43338;DHT22;28933;52.492;13.434;2022-10-04T14:49:06;20.30;91.50
43338;DHT22;28933;52.492;13.434;2022-10-04T14:51:51;20.40;91.50
43338;DHT22;28933;52.492;13.434;2022-10-04T15:07:30;20.40;91.60
43338;DHT22;28933;52.492;13.434;2022-10-04T15:10:18;20.50;91.60
43338;DHT22;28933;52.492;13.434;2022-10-04T15:15:49;20.30;91.70
43338;DHT22;28933;52.492;13.434;2022-10-04T15:18:31;20.20;91.60
43338;DHT22;28933;52.492;13.434;2022-10-04T15:23:39;20.00;91.60
43338;DHT22;28933;52.492;13.434;2022-10-04T15:31:36;19.80;91.70
43338;DHT22;28933;52.492;13.434;2022-10-04T15:37:10;19.80;91.80
43338;DHT22;28933;52.492;13.434;2022-10-04T15:42:35;19.70;91.90
43338;DHT22;28933;52.492;13.434;2022-10-04T16:04:42;19.10;92.30
43338;DHT22;28933;52.492;13.434;2022-10-04T16:07:36;19.00;92.60
43338;DHT22;28933;52.492;13.434;2022-10-04T16:10:13;18.90;92.60
43338;DHT22;28933;52.492;13.434;2022-10-04T16:13:05;18.80;92.70
43338;DHT22;28933;52.492;13.434;2022-10-04T16:15:37;18.80;92.80
43338;DHT22;28933;52.492;13.434;2022-10-04T16:23:45;18.50;93.20
43338;DHT22;28933;52.492;13.434;2022-10-04T16:28:58;18.30;93.40
43338;DHT22;28933;52.492;13.434;2022-10-04T16:31:36;18.20;93.50
43338;DHT22;28933;52.492;13.434;2022-10-04T16:37:03;18.00;93.80
43338;DHT22;28933;52.492;13.434;2022-10-04T16:39:51;17.90;94.00
43338;DHT22;28933;52.492;13.434;2022-10-04T17:08:01;17.20;95.00
43338;DHT22;28933;52.492;13.434;2022-10-04T17:13:30;17.10;95.30
43338;DHT22;28933;52.492;13.434;2022-10-04T17:19:08;17.00;95.40
43338;DHT22;28933;52.492;13.434;2022-10-04T17:28:17;16.80;95.70
43338;DHT22;28933;52.492;13.434;2022-10-04T17:30:52;16.80;95.80
43338;DHT22;28933;52.492;13.434;2022-10-04T17:33:30;16.70;95.80
43338;DHT22;28933;52.492;13.434;2022-10-04T17:36:14;16.70;95.90
43338;DHT22;28933;52.492;13.434;2022-10-04T17:39:04;16.60;96.00
43338;DHT22;28933;52.492;13.434;2022-10-04T17:50:04;16.40;96.10
43338;DHT22;28933;52.492;13.434;2022-10-04T17:53:19;16.40;96.20
43338;DHT22;28933;52.492;13.434;2022-10-04T17:56:07;16.40;96.30
43338;DHT22;28933;52.492;13.434;2022-10-04T17:58:50;16.30;96.30
43338;DHT22;28933;52.492;13.434;2022-10-04T18:01:29;16.30;96.40
43338;DHT22;28933;52.492;13.434;2022-10-04T18:04:07;16.20;96.40
43338;DHT22;28933;52.492;13.434;2022-10-04T18:07:16;16.10;96.40
43338;DHT22;28933;52.492;13.434;2022-10-04T18:09:45;16.10;96.60
43338;DHT22;28933;52.492;13.434;2022-10-04T18:17:39;15.90;96.70
43338;DHT22;28933;52.492;13.434;2022-10-04T18:20:33;15.90;96.80
43338;DHT22;28933;52.492;13.434;2022-10-04T18:23:16;15.80;96.90
43338;DHT22;28933;52.492;13.434;2022-10-04T18:25:44;15.80;96.90
43338;DHT22;28933;52.492;13.434;2022-10-04T18:28:12;15.70;96.90
43338;DHT22;28933;52.492;13.434;2022-10-04T18:33:23;15.70;97.10
43338;DHT22;28933;52.492;13.434;2022-10-04T18:38:30;15.60;97.20
43338;DHT22;28933;52.492;13.434;2022-10-04T18:41:20;15.60;97.30
43338;DHT22;28933;52.492;13.434;2022-10-04T18:44:02;15.60;97.30
43338;DHT22;28933;52.492;13.434;2022-10-04T18:46:39;15.60;97.40
43338;DHT22;28933;52.492;13.434;2022-10-04T18:49:19;15.60;97.50
43338;DHT22;28933;52.492;13.434;2022-10-04T19:00:23;15.50;97.60
43338;DHT22;28933;52.492;13.434;2022-10-04T19:08:49;15.30;97.70
43338;DHT22;28933;52.492;13.434;2022-10-04T19:11:42;15.30;97.80
43338;DHT22;28933;52.492;13.434;2022-10-04T19:17:24;15.30;97.90
43338;DHT22;28933;52.492;13.434;2022-10-04T19:20:02;15.20;97.90
43338;DHT22;28933;52.492;13.434;2022-10-04T19:22:43;15.20;98.00
43338;DHT22;28933;52.492;13.434;2022-10-04T19:28:09;15.10;98.00
43338;DHT22;28933;52.492;13.434;2022-10-04T19:31:00;15.10;98.10
43338;DHT22;28933;52.492;13.434;2022-10-04T19:33:58;15.00;98.20
43338;DHT22;28933;52.492;13.434;2022-10-04T19:39:46;15.00;98.30
43338;DHT22;28933;52.492;13.434;2022-10-04T19:42:16;15.00;98.30
43338;DHT22;28933;52.492;13.434;2022-10-04T19:50:26;14.90;98.60
43338;DHT22;28933;52.492;13.434;2022-10-04T19:53:17;14.90;98.50
43338;DHT22;28933;52.492;13.434;2022-10-04T19:56:03;14.90;98.50
43338;DHT22;28933;52.492;13.434;2022-10-04T20:01:20;14.80;98.60
43338;DHT22;28933;52.492;13.434;2022-10-04T20:03:50;14.80;98.60
43338;DHT22;28933;52.492;13.434;2022-10-04T20:06:37;14.80;98.90
43338;DHT22;28933;52.492;13.434;2022-10-04T20:11:50;14.80;98.70
43338;DHT22;28933;52.492;13.434;2022-10-04T20:19:38;14.60;98.80
43338;DHT22;28933;52.492;13.434;2022-10-04T20:32:03;14.50;98.90
43338;DHT22;28933;52.492;13.434;2022-10-04T20:34:45;14.50;98.90
43338;DHT22;28933;52.492;13.434;2022-10-04T20:37:11;14.50;98.90
43338;DHT22;28933;52.492;13.434;2022-10-04T20:42:32;14.50;98.90
43338;DHT22;28933;52.492;13.434;2022-10-04T20:45:01;14.40;98.90
43338;DHT22;28933;52.492;13.434;2022-10-04T20:47:42;14.40;98.90
43338;DHT22;28933;52.492;13.434;2022-10-04T20:52:36;14.30;99.00
43338;DHT22;28933;52.492;13.434;2022-10-04T20:55:11;14.30;99.10
43338;DHT22;28933;52.492;13.434;2022-10-04T20:57:38;14.30;99.10
43338;DHT22;28933;52.492;13.434;2022-10-04T21:00:05;14.30;99.10
43338;DHT22;28933;52.492;13.434;2022-10-04T21:02:31;14.30;99.10
43338;DHT22;28933;52.492;13.434;2022-10-04T21:05:16;14.30;99.20
43338;DHT22;28933;52.492;13.434;2022-10-04T21:07:42;14.30;99.20
43338;DHT22;28933;52.492;13.434;2022-10-04T21:10:16;14.20;99.10
43338;DHT22;28933;52.492;13.434;2022-10-04T21:12:42;14.20;99.10
43338;DHT22;28933;52.492;13.434;2022-10-04T21:15:20;14.20;99.10
43338;DHT22;28933;52.492;13.434;2022-10-04T21:18:06;14.20;99.20
43338;DHT22;28933;52.492;13.434;2022-10-04T21:20:50;14.20;99.10
43338;DHT22;28933;52.492;13.434;2022-10-04T21:25:43;14.20;99.20
43338;DHT22;28933;52.492;13.434;2022-10-04T21:28:22;14.20;99.20
43338;DHT22;28933;52.492;13.434;2022-10-04T21:30:48;14.10;99.20
43338;DHT22;28933;52.492;13.434;2022-10-04T21:33:14;14.10;99.20
43338;DHT22;28933;52.492;13.434;2022-10-04T21:35:39;14.10;99.20
43338;DHT22;28933;52.492;13.434;2022-10-04T21:38:05;14.10;99.20
43338;DHT22;28933;52.492;13.434;2022-10-04T21:40:31;14.10;99.20
43338;DHT22;28933;52.492;13.434;2022-10-04T21:42:56;14.00;99.20
43338;DHT22;28933;52.492;13.434;2022-10-04T21:45:22;14.00;99.20
43338;DHT22;28933;52.492;13.434;2022-10-04T21:47:47;14.00;99.20
43338;DHT22;28933;52.492;13.434;2022-10-04T21:50:13;14.00;99.30
43338;DHT22;28933;52.492;13.434;2022-10-04T21:52:38;14.00;99.30
43338;DHT22;28933;52.492;13.434;2022-10-04T21:55:04;14.00;99.30
43338;DHT22;28933;52.492;13.434;2022-10-04T21:57:35;14.00;99.30
43338;DHT22;28933;52.492;13.434;2022-10-04T22:00:01;14.00;99.30
43338;DHT22;28933;52.492;13.434;2022-10-04T22:02:26;13.90;99.30
43338;DHT22;28933;52.492;13.434;2022-10-04T22:04:52;13.90;99.30
43338;DHT22;28933;52.492;13.434;2022-10-04T22:07:17;13.90;99.30
43338;DHT22;28933;52.492;13.434;2022-10-04T22:09:43;13.90;99.30
43338;DHT22;28933;52.492;13.434;2022-10-04T22:12:09;13.90;99.30
43338;DHT22;28933;52.492;13.434;2022-10-04T22:14:34;13.90;99.30
43338;DHT22;28933;52.492;13.434;2022-10-04T22:17:01;13.90;99.30
43338;DHT22;28933;52.492;13.434;2022-10-04T22:19:27;13.90;99.30
43338;DHT22;28933;52.492;13.434;2022-10-04T22:21:52;13.90;99.30
43338;DHT22;28933;52.492;13.434;2022-10-04T22:24:19;13.90;99.30
43338;DHT22;28933;52.492;13.434;2022-10-04T22:26:45;13.90;99.30
43338;DHT22;28933;52.492;13.434;2022-10-04T22:29:13;13.80;99.30
43338;DHT22;28933;52.492;13.434;2022-10-04T22:31:39;13.80;99.30
43338;DHT22;28933;52.492;13.434;2022-10-04T22:34:29;13.80;99.30
43338;DHT22;28933;52.492;13.434;2022-10-04T22:36:53;13.80;99.30
43338;DHT22;28933;52.492;13.434;2022-10-04T22:39:20;13.80;99.30
43338;DHT22;28933;52.492;13.434;2022-10-04T22:41:57;13.80;99.30
43338;DHT22;28933;52.492;13.434;2022-10-04T22:44:30;13.80;99.30
43338;DHT22;28933;52.492;13.434;2022-10-04T22:47:00;13.70;99.30
43338;DHT22;28933;52.492;13.434;2022-10-04T22:49:29;13.70;99.30
43338;DHT22;28933;52.492;13.434;2022-10-04T22:51:57;13.70;99.30
43338;DHT22;28933;52.492;13.434;2022-10-04T22:54:26;13.70;99.30
43338;DHT22;28933;52.492;13.434;2022-10-04T22:56:52;13.70;99.30
43338;DHT22;28933;52.492;13.434;2022-10-04T22:59:19;13.60;99.20
43338;DHT22;28933;52.492;13.434;2022-10-04T23:01:47;13.60;99.30
43338;DHT22;28933;52.492;13.434;2022-10-04T23:04:23;13.60;99.30
43338;DHT22;28933;52.492;13.434;2022-10-04T23:06:49;13.60;99.30
43338;DHT22;28933;52.492;13.434;2022-10-04T23:09:16;13.60;99.30
43338;DHT22;28933;52.492;13.434;2022-10-04T23:11:42;13.60;99.30
43338;DHT22;28933;52.492;13.434;2022-10-04T23:14:08;13.50;99.30
43338;DHT22;28933;52.492;13.434;2022-10-04T23:16:35;13.50;99.30
43338;DHT22;28933;52.492;13.434;2022-10-04T23:19:09;13.50;99.40
43338;DHT22;28933;52.492;13.434;2022-10-04T23:21:37;13.50;99.40
43338;DHT22;28933;52.492;13.434;2022-10-04T23:24:15;13.50;99.30
43338;DHT22;28933;52.492;13.434;2022-10-04T23:26:46;13.50;99.30
43338;DHT22;28933;52.492;13.434;2022-10-04T23:29:32;13.50;99.30
43338;DHT22;28933;52.492;13.434;2022-10-04T23:32:07;13.50;99.30
43338;DHT22;28933;52.492;13.434;2022-10-04T23:34:37;13.50;99.30
43338;DHT22;28933;52.492;13.434;2022-10-04T23:37:18;13.50;99.20
43338;DHT22;28933;52.492;13.434;2022-10-04T23:39:45;13.40;99.30
43338;DHT22;28933;52.492;13.434;2022-10-04T23:42:24;13.40;99.30
43338;DHT22;28933;52.492;13.434;2022-10-04T23:44:54;13.40;99.40
43338;DHT22;28933;52.492;13.434;2022-10-04T23:47:21;13.40;99.40
43338;DHT22;28933;52.492;13.434;2022-10-04T23:49:49;13.30;99.40
43338;DHT22;28933;52.492;13.434;2022-10-04T23:52:22;13.30;99.50
43338;DHT22;28933;52.492;13.434;2022-10-04T23:54:50;13.30;99.50
43338;DHT22;28933;52.492;13.434;2022-10-04T23:57:22;13.30;99.50
43338;DHT22;28933;52.492;13.434;2022-10-04T23:59:49;13.30;99.50
